Frej — SBPT — position and weather

sailwx.info

Track history (hours):
 
Tides and Currents Weather Stations Pressure Air Temp Water Temp Dewpoint Dewpoint Depression Visibility Wind Speed Wind Dir Waves Ship Positions

Frej

Last reported at 2015-Jan-28 12:00 UTC. Time now 2015-Jan-28 22:21 UTC.
Position N 65°36' E 022°12'.

Length 108 m; draft 7 m.

Type: Other ship. MMSI: 265068000.

Wind from 180 at 16 knots

Barometer 980.6 mb
Air temperature 0.1 ° C
Water temperature 0.4 ° C

Date/timePositionNaut miles runAvg speedWind from/ knotsBaromVisibWave heightAir tempDewpointWater temp
2015-Jan-28 12:00N 65°36' E 022°12'10 1.9 180 / 16980.6 0.1 0.4
2015-Jan-28 07:00N 65°30' E 022°30'0 0.0 200 / 17983.5 -1.3 0.7
2015-Jan-28 05:00N 65°30' E 022°30'0 0.0 210 / 21984.5 -1.4 0.7
2015-Jan-28 04:00N 65°30' E 022°30'0 0.0 210 / 21985.5 -1.2 0.7
2015-Jan-28 02:00N 65°30' E 022°30'0 0.0 200 / 19987.7 -1.5 0.6
2015-Jan-28 01:00N 65°30' E 022°30'0 0.0 210 / 16989.9 -2.6 0.6
2015-Jan-27 23:00N 65°30' E 022°30'16 5.2 230 / 14992.4 -3.6 0.5
2015-Jan-27 20:00N 65°18' E 022°54'1010.0 230 / 21995.0 -0.7 0.2
2015-Jan-27 19:00N 65°18' E 023°18'3 2.5 240 / 19996.2 -0.9 0.2
2015-Jan-27 18:00N 65°18' E 023°24'18 9.1 240 / 17996.6 -1.3 0.2
2015-Jan-27 16:00N 65°36' E 023°30'6 6.5 240 / 21996.5 -4.4 0.2
2015-Jan-27 15:00N 65°42' E 023°24'6 6.0 250 / 12996.9 -7.1 0.4
2015-Jan-27 14:00N 65°36' E 023°24'1313.0 230 / 14998.1 -3.6 0.2
2015-Jan-27 13:00N 65°24' E 023°12'28 6.9 240 / 14998.4 -2.4 0.2
2015-Jan-27 09:00N 65°36' E 022°12'0 0.0 280 / 2999.3 -4.1 0.5
2015-Jan-26 23:00N 65°36' E 022°12'0 0.0 190 / 8999.6 -3.3 0.7
2015-Jan-26 22:00N 65°36' E 022°12'0 0.0 200 / 6999.5 -2.8 0.7
2015-Jan-26 17:00N 65°36' E 022°12'0 0.0 210 / 101000.1 -1.4 0.8
2015-Jan-26 14:00N 65°36' E 022°12'0 0.0 200 / 161000.2 -0.6 0.8
2015-Jan-26 13:00N 65°36' E 022°12'0 0.0 200 / 161000.8 -0.5 0.8
2015-Jan-26 12:00N 65°36' E 022°12'0 0.0 190 / 211000.7 -0.3 0.8
2015-Jan-26 10:00N 65°36' E 022°12'0 0.0 200 / 271002.0 -0.2 0.7
2015-Jan-26 06:00N 65°36' E 022°12'0 0.0 190 / 311003.9 -0.3 0.8
2015-Jan-26 05:00N 65°36' E 022°12'0 0.0 190 / 231004.6 -0.2 0.7
2015-Jan-26 03:00N 65°36' E 022°12'0 0.0 190 / 231007.0 -3.7 0.8
2015-Jan-26 02:00N 65°36' E 022°12'0 0.0 190 / 121008.0 -6.5 0.7
2015-Jan-26 01:00N 65°36' E 022°12'0 0.0 190 / 141008.9 -9.5 0.8
2015-Jan-25 19:00N 65°36' E 022°12'0 0.0 040 1012.0 0.7
2015-Jan-25 17:00N 65°36' E 022°12'0 0.0 310 / 41012.4 0.7
2015-Jan-25 14:00N 65°36' E 022°12'0 0.0 290 / 21012.2 0.7
2015-Jan-25 12:00N 65°36' E 022°12'0 0.0 330 / 21011.8 0.6
2015-Jan-25 07:00N 65°36' E 022°12'0 0.0 240 / 21009.4 0.6
2015-Jan-25 06:00N 65°36' E 022°12'0 0.0 190 / 41008.5 0.6
2015-Jan-25 04:00N 65°36' E 022°12'0 0.0 300 / 41007.2 0.7
2015-Jan-25 01:00N 65°36' E 022°12'0 0.0 280 / 21005.9 0.7
2015-Jan-24 17:00N 65°36' E 022°12'0 0.0 320 / 61005.7 0.7
2015-Jan-24 15:00N 65°36' E 022°12'0 0.0 310 / 81005.8 0.8
2015-Jan-24 14:00N 65°36' E 022°12'0 0.0 340 / 41005.5 -9.7 0.8
2015-Jan-24 11:00N 65°36' E 022°12'0 0.0 090 / 101006.5 -8.0 0.8
2015-Jan-24 10:00N 65°36' E 022°12'0 0.0 100 / 81007.4 -9.7 0.8
2015-Jan-24 09:00N 65°36' E 022°12'0 0.0 090 / 101008.4 0.8
2015-Jan-24 06:00N 65°36' E 022°12'0 0.0 050 / 101010.3 0.7
2015-Jan-24 05:00N 65°36' E 022°12'0 0.0 350 / 61011.8 0.7
2015-Jan-24 04:00N 65°36' E 022°12'0 0.0 340 / 61012.5 0.7
2015-Jan-24 03:00N 65°36' E 022°12'0 0.0 030 / 21013.1 0.6
2015-Jan-23 22:00N 65°36' E 022°12'0 0.0 010 / 41016.8 0.7
2015-Jan-23 12:00N 65°36' E 022°12'0 0.0 010 / 61022.1 -20.3 0.8
2015-Jan-23 07:00N 65°36' E 022°12'0 0.0 010 / 41024.5 -20.0 0.7
2015-Jan-23 06:00N 65°36' E 022°12'0 0.0 020 / 41025.0 0.7
2015-Jan-23 04:00N 65°36' E 022°12'0 0.0 050 / 61025.8 0.7
2015-Jan-23 03:00N 65°36' E 022°12'0 0.0 040 / 41026.2 0.8
2015-Jan-22 21:00N 65°36' E 022°12'0 0.0 050 / 81029.1 0.6
2015-Jan-22 14:00N 65°36' E 022°12'0 0.0 050 / 41031.2 0.8
2015-Jan-22 11:00N 65°36' E 022°12'0 0.0 320 / 21032.3 0.8
2015-Jan-22 08:00N 65°36' E 022°12'0 0.0 330 / 41032.8 0.5
2015-Jan-21 14:00N 65°36' E 022°12'0 0.0 310 / 61033.1 -20.3 0.7
2015-Jan-21 09:00N 65°36' E 022°12'0 0.0 320 / 61033.2 -20.5 0.7
2015-Jan-21 07:00N 65°36' E 022°12'0 0.0 290 / 21032.5 -20.8 0.7
2015-Jan-21 06:00N 65°36' E 022°12'0 0.0 310 / 41032.0 -21.3 0.7
2015-Jan-21 05:00N 65°36' E 022°12'0 0.0 280 / 21031.9 -22.3 0.7
2015-Jan-21 04:00N 65°36' E 022°12'0 0.0 320 / 21031.9 -21.2 0.7
2015-Jan-21 01:00N 65°36' E 022°12'0 0.0 1032.0 -20.0 0.7
2015-Jan-20 18:00N 65°36' E 022°12'0 0.0 320 / 61031.3 0.7
2015-Jan-20 15:00N 65°36' E 022°12'0 0.0 320 / 81031.6 0.7
2015-Jan-20 10:00N 65°36' E 022°12'0 0.0 330 / 81032.0 -20.6 0.7
2015-Jan-20 09:00N 65°36' E 022°12'0 0.0 340 / 41032.1 -20.1 0.7
2015-Jan-20 07:00N 65°36' E 022°12'0 0.0 320 / 41031.2 -21.2 0.7
2015-Jan-20 04:00N 65°36' E 022°12'0 0.0 320 / 21030.8 0.7
2015-Jan-20 01:00N 65°36' E 022°12'0 0.0 270 / 21030.5 0.7
2015-Jan-19 22:00N 65°36' E 022°12'0 0.0 120 / 21030.5 0.7
2015-Jan-19 19:00N 65°36' E 022°12'0 0.0 300 / 41030.3 0.7
2015-Jan-19 18:00N 65°36' E 022°12'0 0.0 310 / 61030.4 0.6
2015-Jan-19 15:00N 65°36' E 022°12'0 0.0 360 / 61029.9 0.7
2015-Jan-19 14:00N 65°36' E 022°12'0 0.0 330 / 61029.4 0.8
2015-Jan-19 12:00N 65°36' E 022°12'0 0.0 1029.2 0.7
2015-Jan-19 10:00N 65°36' E 022°12'0 0.0 1029.2 0.7
2015-Jan-19 09:00N 65°36' E 022°12'0 0.0 1028.8 0.7
2015-Jan-19 08:00N 65°36' E 022°12'0 0.0 350 / 81028.1 0.7
2015-Jan-19 05:00N 65°36' E 022°12'0 0.0 350 / 61025.2 0.7
2015-Jan-19 04:00N 65°36' E 022°12'0 0.0 340 / 61024.6 0.7
2015-Jan-19 03:00N 65°36' E 022°12'0 0.0 340 / 81023.9 0.7
2015-Jan-18 20:00N 65°36' E 022°12'0 0.0 340 / 101018.0 -8.6 0.7
2015-Jan-18 18:00N 65°36' E 022°12'   1016.4 -6.8 0.7
Track history (hours):
 
Tides and Currents Weather Stations Pressure Air Temp Water Temp Dewpoint Dewpoint Depression Visibility Wind Speed Wind Dir Waves Ship Positions

Frej

Last reported at 2015-Jan-28 12:00 UTC. Time now 2015-Jan-28 22:21 UTC.
Position N 65°36' E 022°12'.

Length 108 m; draft 7 m.

Type: Other ship. MMSI: 265068000.

Wind from 180 at 16 knots

Barometer 980.6 mb
Air temperature 0.1 ° C
Water temperature 0.4 ° C

Date/timePositionNaut miles runAvg speedWind from/ knotsBaromVisibWave heightAir tempDewpointWater temp
2015-Jan-28 12:00N 65°36' E 022°12'10 1.9 180 / 16980.6 0.1 0.4
2015-Jan-28 07:00N 65°30' E 022°30'0 0.0 200 / 17983.5 -1.3 0.7
2015-Jan-28 05:00N 65°30' E 022°30'0 0.0 210 / 21984.5 -1.4 0.7
2015-Jan-28 04:00N 65°30' E 022°30'0 0.0 210 / 21985.5 -1.2 0.7
2015-Jan-28 02:00N 65°30' E 022°30'0 0.0 200 / 19987.7 -1.5 0.6
2015-Jan-28 01:00N 65°30' E 022°30'0 0.0 210 / 16989.9 -2.6 0.6
2015-Jan-27 23:00N 65°30' E 022°30'16 5.2 230 / 14992.4 -3.6 0.5
2015-Jan-27 20:00N 65°18' E 022°54'1010.0 230 / 21995.0 -0.7 0.2
2015-Jan-27 19:00N 65°18' E 023°18'3 2.5 240 / 19996.2 -0.9 0.2
2015-Jan-27 18:00N 65°18' E 023°24'18 9.1 240 / 17996.6 -1.3 0.2
2015-Jan-27 16:00N 65°36' E 023°30'6 6.5 240 / 21996.5 -4.4 0.2
2015-Jan-27 15:00N 65°42' E 023°24'6 6.0 250 / 12996.9 -7.1 0.4
2015-Jan-27 14:00N 65°36' E 023°24'1313.0 230 / 14998.1 -3.6 0.2
2015-Jan-27 13:00N 65°24' E 023°12'28 6.9 240 / 14998.4 -2.4 0.2
2015-Jan-27 09:00N 65°36' E 022°12'0 0.0 280 / 2999.3 -4.1 0.5
2015-Jan-26 23:00N 65°36' E 022°12'0 0.0 190 / 8999.6 -3.3 0.7
2015-Jan-26 22:00N 65°36' E 022°12'0 0.0 200 / 6999.5 -2.8 0.7
2015-Jan-26 17:00N 65°36' E 022°12'0 0.0 210 / 101000.1 -1.4 0.8
2015-Jan-26 14:00N 65°36' E 022°12'0 0.0 200 / 161000.2 -0.6 0.8
2015-Jan-26 13:00N 65°36' E 022°12'0 0.0 200 / 161000.8 -0.5 0.8
2015-Jan-26 12:00N 65°36' E 022°12'0 0.0 190 / 211000.7 -0.3 0.8
2015-Jan-26 10:00N 65°36' E 022°12'0 0.0 200 / 271002.0 -0.2 0.7
2015-Jan-26 06:00N 65°36' E 022°12'0 0.0 190 / 311003.9 -0.3 0.8
2015-Jan-26 05:00N 65°36' E 022°12'0 0.0 190 / 231004.6 -0.2 0.7
2015-Jan-26 03:00N 65°36' E 022°12'0 0.0 190 / 231007.0 -3.7 0.8
2015-Jan-26 02:00N 65°36' E 022°12'0 0.0 190 / 121008.0 -6.5 0.7
2015-Jan-26 01:00N 65°36' E 022°12'0 0.0 190 / 141008.9 -9.5 0.8
2015-Jan-25 19:00N 65°36' E 022°12'0 0.0 040 1012.0 0.7
2015-Jan-25 17:00N 65°36' E 022°12'0 0.0 310 / 41012.4 0.7
2015-Jan-25 14:00N 65°36' E 022°12'0 0.0 290 / 21012.2 0.7
2015-Jan-25 12:00N 65°36' E 022°12'0 0.0 330 / 21011.8 0.6
2015-Jan-25 07:00N 65°36' E 022°12'0 0.0 240 / 21009.4 0.6
2015-Jan-25 06:00N 65°36' E 022°12'0 0.0 190 / 41008.5 0.6
2015-Jan-25 04:00N 65°36' E 022°12'0 0.0 300 / 41007.2 0.7
2015-Jan-25 01:00N 65°36' E 022°12'0 0.0 280 / 21005.9 0.7
2015-Jan-24 17:00N 65°36' E 022°12'0 0.0 320 / 61005.7 0.7
2015-Jan-24 15:00N 65°36' E 022°12'0 0.0 310 / 81005.8 0.8
2015-Jan-24 14:00N 65°36' E 022°12'0 0.0 340 / 41005.5 -9.7 0.8
2015-Jan-24 11:00N 65°36' E 022°12'0 0.0 090 / 101006.5 -8.0 0.8
2015-Jan-24 10:00N 65°36' E 022°12'0 0.0 100 / 81007.4 -9.7 0.8
2015-Jan-24 09:00N 65°36' E 022°12'0 0.0 090 / 101008.4 0.8
2015-Jan-24 06:00N 65°36' E 022°12'0 0.0 050 / 101010.3 0.7
2015-Jan-24 05:00N 65°36' E 022°12'0 0.0 350 / 61011.8 0.7
2015-Jan-24 04:00N 65°36' E 022°12'0 0.0 340 / 61012.5 0.7
2015-Jan-24 03:00N 65°36' E 022°12'0 0.0 030 / 21013.1 0.6
2015-Jan-23 22:00N 65°36' E 022°12'0 0.0 010 / 41016.8 0.7
2015-Jan-23 12:00N 65°36' E 022°12'0 0.0 010 / 61022.1 -20.3 0.8
2015-Jan-23 07:00N 65°36' E 022°12'0 0.0 010 / 41024.5 -20.0 0.7
2015-Jan-23 06:00N 65°36' E 022°12'0 0.0 020 / 41025.0 0.7
2015-Jan-23 04:00N 65°36' E 022°12'0 0.0 050 / 61025.8 0.7
2015-Jan-23 03:00N 65°36' E 022°12'0 0.0 040 / 41026.2 0.8
2015-Jan-22 21:00N 65°36' E 022°12'0 0.0 050 / 81029.1 0.6
2015-Jan-22 14:00N 65°36' E 022°12'0 0.0 050 / 41031.2 0.8
2015-Jan-22 11:00N 65°36' E 022°12'0 0.0 320 / 21032.3 0.8
2015-Jan-22 08:00N 65°36' E 022°12'0 0.0 330 / 41032.8 0.5
2015-Jan-21 14:00N 65°36' E 022°12'0 0.0 310 / 61033.1 -20.3 0.7
2015-Jan-21 09:00N 65°36' E 022°12'0 0.0 320 / 61033.2 -20.5 0.7
2015-Jan-21 07:00N 65°36' E 022°12'0 0.0 290 / 21032.5 -20.8 0.7
2015-Jan-21 06:00N 65°36' E 022°12'0 0.0 310 / 41032.0 -21.3 0.7
2015-Jan-21 05:00N 65°36' E 022°12'0 0.0 280 / 21031.9 -22.3 0.7
2015-Jan-21 04:00N 65°36' E 022°12'0 0.0 320 / 21031.9 -21.2 0.7
2015-Jan-21 01:00N 65°36' E 022°12'0 0.0 1032.0 -20.0 0.7
2015-Jan-20 18:00N 65°36' E 022°12'0 0.0 320 / 61031.3 0.7
2015-Jan-20 15:00N 65°36' E 022°12'0 0.0 320 / 81031.6 0.7
2015-Jan-20 10:00N 65°36' E 022°12'0 0.0 330 / 81032.0 -20.6 0.7
2015-Jan-20 09:00N 65°36' E 022°12'0 0.0 340 / 41032.1 -20.1 0.7
2015-Jan-20 07:00N 65°36' E 022°12'0 0.0 320 / 41031.2 -21.2 0.7
2015-Jan-20 04:00N 65°36' E 022°12'0 0.0 320 / 21030.8 0.7
2015-Jan-20 01:00N 65°36' E 022°12'0 0.0 270 / 21030.5 0.7
2015-Jan-19 22:00N 65°36' E 022°12'0 0.0 120 / 21030.5 0.7
2015-Jan-19 19:00N 65°36' E 022°12'0 0.0 300 / 41030.3 0.7
2015-Jan-19 18:00N 65°36' E 022°12'0 0.0 310 / 61030.4 0.6
2015-Jan-19 15:00N 65°36' E 022°12'0 0.0 360 / 61029.9 0.7
2015-Jan-19 14:00N 65°36' E 022°12'0 0.0 330 / 61029.4 0.8
2015-Jan-19 12:00N 65°36' E 022°12'0 0.0 1029.2 0.7
2015-Jan-19 10:00N 65°36' E 022°12'0 0.0 1029.2 0.7
2015-Jan-19 09:00N 65°36' E 022°12'0 0.0 1028.8 0.7
2015-Jan-19 08:00N 65°36' E 022°12'0 0.0 350 / 81028.1 0.7
2015-Jan-19 05:00N 65°36' E 022°12'0 0.0 350 / 61025.2 0.7
2015-Jan-19 04:00N 65°36' E 022°12'0 0.0 340 / 61024.6 0.7
2015-Jan-19 03:00N 65°36' E 022°12'0 0.0 340 / 81023.9 0.7
2015-Jan-18 20:00N 65°36' E 022°12'0 0.0 340 / 101018.0 -8.6 0.7
2015-Jan-18 18:00N 65°36' E 022°12'   1016.4 -6.8 0.7

Dump ship's entire track history